sensor_id;sensor_type;location;lat;lon;timestamp;temperature;humidity
20658;DHT22;10488;50.846;4.078;2023-04-01T00:00:56;10.40;99.90
20658;DHT22;10488;50.846;4.078;2023-04-01T00:03:23;10.50;99.90
20658;DHT22;10488;50.846;4.078;2023-04-01T00:05:49;10.50;99.90
20658;DHT22;10488;50.846;4.078;2023-04-01T00:08:15;10.40;99.90
20658;DHT22;10488;50.846;4.078;2023-04-01T00:10:41;10.40;99.90
20658;DHT22;10488;50.846;4.078;2023-04-01T00:13:07;10.40;99.90
20658;DHT22;10488;50.846;4.078;2023-04-01T00:15:33;10.40;99.90
20658;DHT22;10488;50.846;4.078;2023-04-01T00:17:59;10.50;99.90
20658;DHT22;10488;50.846;4.078;2023-04-01T00:20:25;10.40;99.90
20658;DHT22;10488;50.846;4.078;2023-04-01T00:22:51;10.40;99.90
20658;DHT22;10488;50.846;4.078;2023-04-01T00:25:17;10.40;99.90
20658;DHT22;10488;50.846;4.078;2023-04-01T00:27:44;10.30;99.90
20658;DHT22;10488;50.846;4.078;2023-04-01T00:30:10;10.30;99.90
20658;DHT22;10488;50.846;4.078;2023-04-01T00:32:36;10.40;99.90
20658;DHT22;10488;50.846;4.078;2023-04-01T00:35:03;10.40;99.90
20658;DHT22;10488;50.846;4.078;2023-04-01T00:37:29;10.30;99.90
20658;DHT22;10488;50.846;4.078;2023-04-01T00:39:54;10.40;99.90
20658;DHT22;10488;50.846;4.078;2023-04-01T00:42:20;10.30;99.90
20658;DHT22;10488;50.846;4.078;2023-04-01T00:44:54;10.30;99.90
20658;DHT22;10488;50.846;4.078;2023-04-01T00:47:21;10.30;99.90
20658;DHT22;10488;50.846;4.078;2023-04-01T00:49:50;10.30;99.90
20658;DHT22;10488;50.846;4.078;2023-04-01T00:52:23;10.30;99.90
20658;DHT22;10488;50.846;4.078;2023-04-01T00:54:56;10.30;99.90
20658;DHT22;10488;50.846;4.078;2023-04-01T00:57:31;10.30;99.90
20658;DHT22;10488;50.846;4.078;2023-04-01T00:59:57;10.20;99.90
20658;DHT22;10488;50.846;4.078;2023-04-01T01:02:24;10.30;99.90
20658;DHT22;10488;50.846;4.078;2023-04-01T01:04:50;10.30;99.90
20658;DHT22;10488;50.846;4.078;2023-04-01T01:07:26;10.30;99.90
20658;DHT22;10488;50.846;4.078;2023-04-01T01:10:20;10.50;99.90
20658;DHT22;10488;50.846;4.078;2023-04-01T01:26:50;10.40;99.90
20658;DHT22;10488;50.846;4.078;2023-04-01T01:37:38;10.60;99.90
20658;DHT22;10488;50.846;4.078;2023-04-01T01:40:07;10.60;99.90
20658;DHT22;10488;50.846;4.078;2023-04-01T01:42:37;10.50;99.90
20658;DHT22;10488;50.846;4.078;2023-04-01T01:45:05;10.50;99.90
20658;DHT22;10488;50.846;4.078;2023-04-01T01:47:33;10.50;99.90
20658;DHT22;10488;50.846;4.078;2023-04-01T01:50:00;10.40;99.90
20658;DHT22;10488;50.846;4.078;2023-04-01T01:52:27;10.40;99.90
20658;DHT22;10488;50.846;4.078;2023-04-01T01:54:57;10.40;99.90
20658;DHT22;10488;50.846;4.078;2023-04-01T01:57:34;10.50;99.90
20658;DHT22;10488;50.846;4.078;2023-04-01T02:00:06;10.40;99.90
20658;DHT22;10488;50.846;4.078;2023-04-01T02:02:46;10.40;99.90
20658;DHT22;10488;50.846;4.078;2023-04-01T02:05:16;10.40;99.90
20658;DHT22;10488;50.846;4.078;2023-04-01T02:07:48;10.40;99.90
20658;DHT22;10488;50.846;4.078;2023-04-01T02:10:15;10.50;99.90
20658;DHT22;10488;50.846;4.078;2023-04-01T02:12:42;10.50;99.90
20658;DHT22;10488;50.846;4.078;2023-04-01T02:15:12;10.40;99.90
20658;DHT22;10488;50.846;4.078;2023-04-01T02:17:43;10.40;99.90
20658;DHT22;10488;50.846;4.078;2023-04-01T02:20:16;10.30;99.90
20658;DHT22;10488;50.846;4.078;2023-04-01T02:22:48;10.40;99.90
20658;DHT22;10488;50.846;4.078;2023-04-01T02:25:18;10.30;99.90
20658;DHT22;10488;50.846;4.078;2023-04-01T02:27:45;10.30;99.90
20658;DHT22;10488;50.846;4.078;2023-04-01T02:30:14;10.40;99.90
20658;DHT22;10488;50.846;4.078;2023-04-01T02:32:40;10.40;99.90
20658;DHT22;10488;50.846;4.078;2023-04-01T02:35:12;10.40;99.90
20658;DHT22;10488;50.846;4.078;2023-04-01T02:37:39;10.40;99.90
20658;DHT22;10488;50.846;4.078;2023-04-01T02:40:08;10.40;99.90
20658;DHT22;10488;50.846;4.078;2023-04-01T02:42:35;10.40;99.90
20658;DHT22;10488;50.846;4.078;2023-04-01T02:45:01;10.40;99.90
20658;DHT22;10488;50.846;4.078;2023-04-01T02:47:27;10.40;99.90
20658;DHT22;10488;50.846;4.078;2023-04-01T02:49:52;10.40;99.90
20658;DHT22;10488;50.846;4.078;2023-04-01T02:52:30;10.30;99.90
20658;DHT22;10488;50.846;4.078;2023-04-01T02:54:56;10.30;99.90
20658;DHT22;10488;50.846;4.078;2023-04-01T02:57:23;10.20;99.90
20658;DHT22;10488;50.846;4.078;2023-04-01T02:59:48;10.30;99.90
20658;DHT22;10488;50.846;4.078;2023-04-01T03:02:14;10.10;99.90
20658;DHT22;10488;50.846;4.078;2023-04-01T03:04:40;10.10;99.90
20658;DHT22;10488;50.846;4.078;2023-04-01T03:07:06;10.20;99.90
20658;DHT22;10488;50.846;4.078;2023-04-01T03:09:32;10.30;99.90
20658;DHT22;10488;50.846;4.078;2023-04-01T03:11:57;10.30;99.90
20658;DHT22;10488;50.846;4.078;2023-04-01T03:14:23;10.30;99.90
20658;DHT22;10488;50.846;4.078;2023-04-01T03:16:49;10.30;99.90
20658;DHT22;10488;50.846;4.078;2023-04-01T03:19:14;10.20;99.90
20658;DHT22;10488;50.846;4.078;2023-04-01T03:21:40;10.30;99.90
20658;DHT22;10488;50.846;4.078;2023-04-01T03:24:06;10.30;99.90
20658;DHT22;10488;50.846;4.078;2023-04-01T03:26:32;10.20;99.90
20658;DHT22;10488;50.846;4.078;2023-04-01T03:28:57;10.30;99.90
20658;DHT22;10488;50.846;4.078;2023-04-01T03:31:23;10.20;99.90
20658;DHT22;10488;50.846;4.078;2023-04-01T03:33:49;10.20;99.90
20658;DHT22;10488;50.846;4.078;2023-04-01T03:36:14;10.20;99.90
20658;DHT22;10488;50.846;4.078;2023-04-01T03:38:41;10.10;99.90
20658;DHT22;10488;50.846;4.078;2023-04-01T03:41:07;10.20;99.90
20658;DHT22;10488;50.846;4.078;2023-04-01T03:43:33;10.20;99.90
20658;DHT22;10488;50.846;4.078;2023-04-01T03:45:59;10.20;99.90
20658;DHT22;10488;50.846;4.078;2023-04-01T03:48:25;10.20;99.90
20658;DHT22;10488;50.846;4.078;2023-04-01T03:50:51;10.20;99.90
20658;DHT22;10488;50.846;4.078;2023-04-01T03:53:17;10.20;99.90
20658;DHT22;10488;50.846;4.078;2023-04-01T03:55:43;10.10;99.90
20658;DHT22;10488;50.846;4.078;2023-04-01T03:58:08;10.20;99.90
20658;DHT22;10488;50.846;4.078;2023-04-01T04:00:34;10.30;99.90
20658;DHT22;10488;50.846;4.078;2023-04-01T04:03:01;10.20;99.90
20658;DHT22;10488;50.846;4.078;2023-04-01T04:05:26;10.20;99.90
20658;DHT22;10488;50.846;4.078;2023-04-01T04:07:52;10.20;99.90
20658;DHT22;10488;50.846;4.078;2023-04-01T04:10:19;10.20;99.90
20658;DHT22;10488;50.846;4.078;2023-04-01T04:12:44;10.20;99.90
20658;DHT22;10488;50.846;4.078;2023-04-01T04:15:12;10.20;99.90
20658;DHT22;10488;50.846;4.078;2023-04-01T04:17:37;10.20;99.90
20658;DHT22;10488;50.846;4.078;2023-04-01T04:20:03;10.20;99.90
20658;DHT22;10488;50.846;4.078;2023-04-01T04:22:29;10.20;99.90
20658;DHT22;10488;50.846;4.078;2023-04-01T04:24:55;10.10;99.90
20658;DHT22;10488;50.846;4.078;2023-04-01T04:27:20;10.10;99.90
20658;DHT22;10488;50.846;4.078;2023-04-01T04:29:46;10.20;99.90
20658;DHT22;10488;50.846;4.078;2023-04-01T04:32:12;10.20;99.90
20658;DHT22;10488;50.846;4.078;2023-04-01T04:34:37;10.10;99.90
20658;DHT22;10488;50.846;4.078;2023-04-01T04:37:03;10.10;99.90
20658;DHT22;10488;50.846;4.078;2023-04-01T04:39:29;10.10;99.90
20658;DHT22;10488;50.846;4.078;2023-04-01T04:41:55;10.10;99.90
20658;DHT22;10488;50.846;4.078;2023-04-01T04:44:20;10.10;99.90
20658;DHT22;10488;50.846;4.078;2023-04-01T04:46:46;10.20;99.90
20658;DHT22;10488;50.846;4.078;2023-04-01T04:49:12;10.10;99.90
20658;DHT22;10488;50.846;4.078;2023-04-01T04:51:38;10.00;99.90
20658;DHT22;10488;50.846;4.078;2023-04-01T04:54:04;10.00;99.90
20658;DHT22;10488;50.846;4.078;2023-04-01T04:56:31;10.00;99.90
20658;DHT22;10488;50.846;4.078;2023-04-01T04:58:57;9.90;99.90
20658;DHT22;10488;50.846;4.078;2023-04-01T05:01:23;9.80;99.90
20658;DHT22;10488;50.846;4.078;2023-04-01T05:03:49;9.90;99.90
20658;DHT22;10488;50.846;4.078;2023-04-01T05:06:16;9.80;99.90
20658;DHT22;10488;50.846;4.078;2023-04-01T05:08:43;9.90;99.90
20658;DHT22;10488;50.846;4.078;2023-04-01T05:11:12;9.90;99.90
20658;DHT22;10488;50.846;4.078;2023-04-01T05:13:39;10.00;99.90
20658;DHT22;10488;50.846;4.078;2023-04-01T05:16:12;10.00;99.90
20658;DHT22;10488;50.846;4.078;2023-04-01T05:18:38;10.00;99.90
20658;DHT22;10488;50.846;4.078;2023-04-01T05:21:04;10.10;99.90
20658;DHT22;10488;50.846;4.078;2023-04-01T05:23:31;10.00;99.90
20658;DHT22;10488;50.846;4.078;2023-04-01T05:25:57;9.90;99.90
20658;DHT22;10488;50.846;4.078;2023-04-01T05:28:23;9.90;99.90
20658;DHT22;10488;50.846;4.078;2023-04-01T05:30:48;10.00;99.90
20658;DHT22;10488;50.846;4.078;2023-04-01T05:33:14;10.10;99.90
20658;DHT22;10488;50.846;4.078;2023-04-01T05:35:40;10.10;99.90
20658;DHT22;10488;50.846;4.078;2023-04-01T05:38:07;10.10;99.90
20658;DHT22;10488;50.846;4.078;2023-04-01T05:40:32;10.00;99.90
20658;DHT22;10488;50.846;4.078;2023-04-01T05:42:59;10.00;99.90
20658;DHT22;10488;50.846;4.078;2023-04-01T05:45:25;9.90;99.90
20658;DHT22;10488;50.846;4.078;2023-04-01T05:47:50;9.90;99.90
20658;DHT22;10488;50.846;4.078;2023-04-01T05:50:16;10.00;99.90
20658;DHT22;10488;50.846;4.078;2023-04-01T05:52:42;9.90;99.90
20658;DHT22;10488;50.846;4.078;2023-04-01T05:55:08;10.00;99.90
20658;DHT22;10488;50.846;4.078;2023-04-01T05:57:34;10.00;99.90
20658;DHT22;10488;50.846;4.078;2023-04-01T05:59:59;10.00;99.90
20658;DHT22;10488;50.846;4.078;2023-04-01T06:02:25;9.90;99.90
20658;DHT22;10488;50.846;4.078;2023-04-01T06:05:02;10.00;99.90
20658;DHT22;10488;50.846;4.078;2023-04-01T06:07:31;10.10;99.90
20658;DHT22;10488;50.846;4.078;2023-04-01T06:09:57;10.10;99.90
20658;DHT22;10488;50.846;4.078;2023-04-01T06:12:46;10.20;99.90
20658;DHT22;10488;50.846;4.078;2023-04-01T06:16:07;10.20;99.90
20658;DHT22;10488;50.846;4.078;2023-04-01T06:20:59;10.10;99.90
20658;DHT22;10488;50.846;4.078;2023-04-01T06:23:54;10.00;99.90
20658;DHT22;10488;50.846;4.078;2023-04-01T06:42:33;10.00;99.90
20658;DHT22;10488;50.846;4.078;2023-04-01T06:45:46;10.00;99.90
20658;DHT22;10488;50.846;4.078;2023-04-01T06:51:44;10.20;99.90
20658;DHT22;10488;50.846;4.078;2023-04-01T06:53:54;10.10;99.90
20658;DHT22;10488;50.846;4.078;2023-04-01T06:56:25;10.20;99.90
20658;DHT22;10488;50.846;4.078;2023-04-01T06:58:53;10.20;99.90
20658;DHT22;10488;50.846;4.078;2023-04-01T07:06:39;10.20;99.90
20658;DHT22;10488;50.846;4.078;2023-04-01T07:09:18;10.40;99.90
20658;DHT22;10488;50.846;4.078;2023-04-01T07:11:45;10.40;99.90
20658;DHT22;10488;50.846;4.078;2023-04-01T07:14:21;10.40;99.90
20658;DHT22;10488;50.846;4.078;2023-04-01T07:17:07;10.20;99.90
20658;DHT22;10488;50.846;4.078;2023-04-01T07:19:42;10.20;99.90
20658;DHT22;10488;50.846;4.078;2023-04-01T07:22:49;10.20;99.90
20658;DHT22;10488;50.846;4.078;2023-04-01T07:25:22;10.30;99.90
20658;DHT22;10488;50.846;4.078;2023-04-01T07:27:53;10.20;99.90
20658;DHT22;10488;50.846;4.078;2023-04-01T07:30:23;10.10;99.90
20658;DHT22;10488;50.846;4.078;2023-04-01T07:36:02;10.20;99.90
20658;DHT22;10488;50.846;4.078;2023-04-01T07:38:48;10.20;99.90
20658;DHT22;10488;50.846;4.078;2023-04-01T07:42:01;10.20;99.90
20658;DHT22;10488;50.846;4.078;2023-04-01T07:44:53;10.20;99.90
20658;DHT22;10488;50.846;4.078;2023-04-01T07:50:00;10.20;99.90
20658;DHT22;10488;50.846;4.078;2023-04-01T07:55:13;10.40;99.90
20658;DHT22;10488;50.846;4.078;2023-04-01T08:00:56;10.50;99.90
20658;DHT22;10488;50.846;4.078;2023-04-01T08:16:37;10.90;99.90
20658;DHT22;10488;50.846;4.078;2023-04-01T08:21:58;10.60;99.90
20658;DHT22;10488;50.846;4.078;2023-04-01T08:26:58;10.70;99.90
20658;DHT22;10488;50.846;4.078;2023-04-01T08:29:38;10.60;99.90
20658;DHT22;10488;50.846;4.078;2023-04-01T08:32:42;10.80;99.90
20658;DHT22;10488;50.846;4.078;2023-04-01T08:35:14;10.80;99.90
20658;DHT22;10488;50.846;4.078;2023-04-01T08:37:43;10.80;99.90
20658;DHT22;10488;50.846;4.078;2023-04-01T08:51:28;10.90;99.90
20658;DHT22;10488;50.846;4.078;2023-04-01T08:59:34;10.90;99.90
20658;DHT22;10488;50.846;4.078;2023-04-01T09:13:42;10.80;99.90
20658;DHT22;10488;50.846;4.078;2023-04-01T09:24:19;11.50;99.90
20658;DHT22;10488;50.846;4.078;2023-04-01T09:32:53;11.30;99.90
20658;DHT22;10488;50.846;4.078;2023-04-01T09:41:40;11.40;99.90
20658;DHT22;10488;50.846;4.078;2023-04-01T09:44:10;11.20;99.90
20658;DHT22;10488;50.846;4.078;2023-04-01T09:49:42;11.10;99.90
20658;DHT22;10488;50.846;4.078;2023-04-01T09:52:20;11.50;99.90
20658;DHT22;10488;50.846;4.078;2023-04-01T10:00:47;11.90;99.90
20658;DHT22;10488;50.846;4.078;2023-04-01T10:25:10;11.50;99.90
20658;DHT22;10488;50.846;4.078;2023-04-01T10:27:59;11.70;99.90
20658;DHT22;10488;50.846;4.078;2023-04-01T10:34:11;12.00;99.90
20658;DHT22;10488;50.846;4.078;2023-04-01T11:10:08;11.80;99.90
20658;DHT22;10488;50.846;4.078;2023-04-01T11:13:15;11.50;99.90
20658;DHT22;10488;50.846;4.078;2023-04-01T11:21:37;11.60;99.90
20658;DHT22;10488;50.846;4.078;2023-04-01T11:26:41;11.40;99.90
20658;DHT22;10488;50.846;4.078;2023-04-01T11:38:01;11.50;99.90
20658;DHT22;10488;50.846;4.078;2023-04-01T11:54:19;11.40;99.90
20658;DHT22;10488;50.846;4.078;2023-04-01T12:10:38;11.40;99.90
20658;DHT22;10488;50.846;4.078;2023-04-01T12:16:04;11.30;99.90
20658;DHT22;10488;50.846;4.078;2023-04-01T12:19:02;11.50;99.90
20658;DHT22;10488;50.846;4.078;2023-04-01T12:24:51;11.00;99.90
20658;DHT22;10488;50.846;4.078;2023-04-01T12:38:48;11.20;99.90
20658;DHT22;10488;50.846;4.078;2023-04-01T12:41:35;11.40;99.90
20658;DHT22;10488;50.846;4.078;2023-04-01T12:44:13;11.30;99.90
20658;DHT22;10488;50.846;4.078;2023-04-01T12:46:52;11.30;99.90
20658;DHT22;10488;50.846;4.078;2023-04-01T12:52:36;11.60;99.90
20658;DHT22;10488;50.846;4.078;2023-04-01T13:01:30;11.40;99.90
20658;DHT22;10488;50.846;4.078;2023-04-01T13:18:05;11.50;99.90
20658;DHT22;10488;50.846;4.078;2023-04-01T13:20:57;11.10;99.90
20658;DHT22;10488;50.846;4.078;2023-04-01T13:26:34;10.90;99.90
20658;DHT22;10488;50.846;4.078;2023-04-01T13:29:23;10.80;99.90
20658;DHT22;10488;50.846;4.078;2023-04-01T13:31:55;10.90;99.90
20658;DHT22;10488;50.846;4.078;2023-04-01T13:37:23;10.70;99.90
20658;DHT22;10488;50.846;4.078;2023-04-01T13:40:27;10.90;99.90
20658;DHT22;10488;50.846;4.078;2023-04-01T13:43:01;11.00;99.90
20658;DHT22;10488;50.846;4.078;2023-04-01T13:56:42;11.00;99.90
20658;DHT22;10488;50.846;4.078;2023-04-01T14:02:31;11.10;99.90
20658;DHT22;10488;50.846;4.078;2023-04-01T14:10:07;11.10;99.90
20658;DHT22;10488;50.846;4.078;2023-04-01T14:13:04;11.10;99.90
20658;DHT22;10488;50.846;4.078;2023-04-01T14:15:42;11.00;99.90
20658;DHT22;10488;50.846;4.078;2023-04-01T14:18:52;10.90;99.90
20658;DHT22;10488;50.846;4.078;2023-04-01T14:21:58;11.10;99.90
20658;DHT22;10488;50.846;4.078;2023-04-01T14:34:06;11.10;99.90
20658;DHT22;10488;50.846;4.078;2023-04-01T14:36:32;11.20;99.90
20658;DHT22;10488;50.846;4.078;2023-04-01T14:47:59;11.30;99.90
20658;DHT22;10488;50.846;4.078;2023-04-01T14:50:42;11.30;99.90
20658;DHT22;10488;50.846;4.078;2023-04-01T14:55:58;11.00;99.90
20658;DHT22;10488;50.846;4.078;2023-04-01T14:58:39;11.00;99.90
20658;DHT22;10488;50.846;4.078;2023-04-01T15:14:30;11.10;99.90
20658;DHT22;10488;50.846;4.078;2023-04-01T15:20:15;11.40;99.90
20658;DHT22;10488;50.846;4.078;2023-04-01T15:28:45;11.10;99.90
20658;DHT22;10488;50.846;4.078;2023-04-01T15:31:22;10.90;99.90
20658;DHT22;10488;50.846;4.078;2023-04-01T15:36:58;11.20;99.90
20658;DHT22;10488;50.846;4.078;2023-04-01T15:45:17;10.80;99.90
20658;DHT22;10488;50.846;4.078;2023-04-01T15:48:00;10.70;99.90
20658;DHT22;10488;50.846;4.078;2023-04-01T15:59:20;10.40;99.90
20658;DHT22;10488;50.846;4.078;2023-04-01T16:04:28;10.70;99.90
20658;DHT22;10488;50.846;4.078;2023-04-01T16:10:23;10.70;99.90
20658;DHT22;10488;50.846;4.078;2023-04-01T16:21:27;10.80;99.90
20658;DHT22;10488;50.846;4.078;2023-04-01T16:24:05;10.80;99.90
20658;DHT22;10488;50.846;4.078;2023-04-01T16:26:56;10.90;99.90
20658;DHT22;10488;50.846;4.078;2023-04-01T16:35:00;10.70;99.90
20658;DHT22;10488;50.846;4.078;2023-04-01T16:37:34;10.70;99.90
20658;DHT22;10488;50.846;4.078;2023-04-01T16:40:34;10.60;99.90
20658;DHT22;10488;50.846;4.078;2023-04-01T16:43:16;10.40;99.90
20658;DHT22;10488;50.846;4.078;2023-04-01T16:46:27;10.60;99.90
20658;DHT22;10488;50.846;4.078;2023-04-01T16:49:03;10.50;99.90
20658;DHT22;10488;50.846;4.078;2023-04-01T16:54:27;10.40;99.90
20658;DHT22;10488;50.846;4.078;2023-04-01T16:57:14;10.50;99.90
20658;DHT22;10488;50.846;4.078;2023-04-01T16:59:54;10.60;99.90
20658;DHT22;10488;50.846;4.078;2023-04-01T17:02:31;10.70;99.90
20658;DHT22;10488;50.846;4.078;2023-04-01T17:05:03;10.50;99.90
20658;DHT22;10488;50.846;4.078;2023-04-01T17:10:37;10.30;99.90
20658;DHT22;10488;50.846;4.078;2023-04-01T17:24:00;10.20;99.90
20658;DHT22;10488;50.846;4.078;2023-04-01T17:26:42;10.20;99.90
20658;DHT22;10488;50.846;4.078;2023-04-01T17:29:15;10.10;99.90
20658;DHT22;10488;50.846;4.078;2023-04-01T17:44:57;10.20;99.90
20658;DHT22;10488;50.846;4.078;2023-04-01T17:47:39;10.00;99.90
20658;DHT22;10488;50.846;4.078;2023-04-01T17:50:22;10.10;99.90
20658;DHT22;10488;50.846;4.078;2023-04-01T18:04:08;9.90;99.90
20658;DHT22;10488;50.846;4.078;2023-04-01T18:20:01;9.70;99.90
20658;DHT22;10488;50.846;4.078;2023-04-01T18:25:43;9.70;99.90
20658;DHT22;10488;50.846;4.078;2023-04-01T18:36:25;9.90;99.90
20658;DHT22;10488;50.846;4.078;2023-04-01T18:39:06;9.90;99.90
20658;DHT22;10488;50.846;4.078;2023-04-01T18:42:08;9.60;99.90
20658;DHT22;10488;50.846;4.078;2023-04-01T18:44:46;9.50;99.90
20658;DHT22;10488;50.846;4.078;2023-04-01T18:53:00;9.60;99.90
20658;DHT22;10488;50.846;4.078;2023-04-01T18:55:43;9.50;99.90
20658;DHT22;10488;50.846;4.078;2023-04-01T18:58:34;9.60;99.90
20658;DHT22;10488;50.846;4.078;2023-04-01T19:06:23;9.50;99.90
20658;DHT22;10488;50.846;4.078;2023-04-01T19:08:52;9.50;99.90
20658;DHT22;10488;50.846;4.078;2023-04-01T19:12:23;9.60;99.90
20658;DHT22;10488;50.846;4.078;2023-04-01T19:17:32;9.20;99.90
20658;DHT22;10488;50.846;4.078;2023-04-01T19:25:49;9.10;99.90
20658;DHT22;10488;50.846;4.078;2023-04-01T19:36:53;9.10;99.90
20658;DHT22;10488;50.846;4.078;2023-04-01T19:45:46;9.10;99.90
20658;DHT22;10488;50.846;4.078;2023-04-01T19:51:22;9.30;99.90
20658;DHT22;10488;50.846;4.078;2023-04-01T19:54:04;9.40;99.90
20658;DHT22;10488;50.846;4.078;2023-04-01T19:59:32;9.40;99.90
20658;DHT22;10488;50.846;4.078;2023-04-01T20:04:39;9.20;99.90
20658;DHT22;10488;50.846;4.078;2023-04-01T20:09:57;9.30;99.90
20658;DHT22;10488;50.846;4.078;2023-04-01T20:15:03;9.30;99.90
20658;DHT22;10488;50.846;4.078;2023-04-01T20:17:32;9.40;99.90
20658;DHT22;10488;50.846;4.078;2023-04-01T20:22:28;9.40;99.90
20658;DHT22;10488;50.846;4.078;2023-04-01T20:24:59;9.30;99.90
20658;DHT22;10488;50.846;4.078;2023-04-01T20:27:36;9.40;99.90
20658;DHT22;10488;50.846;4.078;2023-04-01T20:44:13;9.30;99.90
20658;DHT22;10488;50.846;4.078;2023-04-01T20:47:15;9.30;99.90
20658;DHT22;10488;50.846;4.078;2023-04-01T20:52:46;9.30;99.90
20658;DHT22;10488;50.846;4.078;2023-04-01T20:58:31;9.30;99.90
20658;DHT22;10488;50.846;4.078;2023-04-01T21:07:16;9.40;99.90
20658;DHT22;10488;50.846;4.078;2023-04-01T21:09:54;9.30;99.90
20658;DHT22;10488;50.846;4.078;2023-04-01T21:15:31;9.20;99.90
20658;DHT22;10488;50.846;4.078;2023-04-01T21:21:25;9.10;99.90
20658;DHT22;10488;50.846;4.078;2023-04-01T21:26:42;9.20;99.90
20658;DHT22;10488;50.846;4.078;2023-04-01T21:35:05;9.10;99.90
20658;DHT22;10488;50.846;4.078;2023-04-01T21:46:16;9.20;99.90
20658;DHT22;10488;50.846;4.078;2023-04-01T21:54:35;9.20;99.90
20658;DHT22;10488;50.846;4.078;2023-04-01T22:09:08;9.10;99.90
20658;DHT22;10488;50.846;4.078;2023-04-01T22:14:32;9.10;99.90
20658;DHT22;10488;50.846;4.078;2023-04-01T22:17:02;9.20;99.90
20658;DHT22;10488;50.846;4.078;2023-04-01T22:22:55;9.30;99.90
20658;DHT22;10488;50.846;4.078;2023-04-01T22:28:11;9.30;99.90
20658;DHT22;10488;50.846;4.078;2023-04-01T22:31:07;9.50;99.90
20658;DHT22;10488;50.846;4.078;2023-04-01T22:38:59;9.40;99.90
20658;DHT22;10488;50.846;4.078;2023-04-01T22:41:41;9.50;99.90
20658;DHT22;10488;50.846;4.078;2023-04-01T22:47:35;9.60;99.90
20658;DHT22;10488;50.846;4.078;2023-04-01T22:50:18;9.40;99.90
20658;DHT22;10488;50.846;4.078;2023-04-01T22:52:47;9.50;99.90
20658;DHT22;10488;50.846;4.078;2023-04-01T22:55:22;9.50;99.90
20658;DHT22;10488;50.846;4.078;2023-04-01T22:57:57;9.60;99.90
20658;DHT22;10488;50.846;4.078;2023-04-01T23:00:43;9.50;99.90
20658;DHT22;10488;50.846;4.078;2023-04-01T23:05:53;9.40;99.90
20658;DHT22;10488;50.846;4.078;2023-04-01T23:13:50;9.40;99.90
20658;DHT22;10488;50.846;4.078;2023-04-01T23:16:28;9.40;99.90
20658;DHT22;10488;50.846;4.078;2023-04-01T23:19:06;9.40;99.90
20658;DHT22;10488;50.846;4.078;2023-04-01T23:21:44;9.50;99.90
20658;DHT22;10488;50.846;4.078;2023-04-01T23:24:28;9.50;99.90
20658;DHT22;10488;50.846;4.078;2023-04-01T23:29:27;9.40;99.90
20658;DHT22;10488;50.846;4.078;2023-04-01T23:32:03;9.40;99.90
20658;DHT22;10488;50.846;4.078;2023-04-01T23:34:35;9.30;99.90
20658;DHT22;10488;50.846;4.078;2023-04-01T23:37:08;9.50;99.90
20658;DHT22;10488;50.846;4.078;2023-04-01T23:39:42;9.40;99.90
20658;DHT22;10488;50.846;4.078;2023-04-01T23:42:28;9.40;99.90
20658;DHT22;10488;50.846;4.078;2023-04-01T23:45:00;9.50;99.90
20658;DHT22;10488;50.846;4.078;2023-04-01T23:47:33;9.50;99.90
20658;DHT22;10488;50.846;4.078;2023-04-01T23:50:05;9.50;99.90
20658;DHT22;10488;50.846;4.078;2023-04-01T23:52:40;9.60;99.90
20658;DHT22;10488;50.846;4.078;2023-04-01T23:55:29;9.70;99.90
